sensor_id;sensor_type;location;lat;lon;timestamp;temperature;humidity
58469;DHT22;44257;44.804;10.220;2023-02-16T00:02:11;3.30;99.90
58469;DHT22;44257;44.804;10.220;2023-02-16T01:10:13;3.00;99.90
58469;DHT22;44257;44.804;10.220;2023-02-16T01:21:35;2.70;99.90
58469;DHT22;44257;44.804;10.220;2023-02-16T01:24:21;2.70;99.90
58469;DHT22;44257;44.804;10.220;2023-02-16T05:15:42;2.10;99.90
58469;DHT22;44257;44.804;10.220;2023-02-16T05:19:12;2.10;99.90
58469;DHT22;44257;44.804;10.220;2023-02-16T05:28:08;2.20;99.90
58469;DHT22;44257;44.804;10.220;2023-02-16T05:49:58;2.10;99.90
58469;DHT22;44257;44.804;10.220;2023-02-16T06:13:59;2.20;99.90
58469;DHT22;44257;44.804;10.220;2023-02-16T06:17:20;2.20;99.90
58469;DHT22;44257;44.804;10.220;2023-02-16T06:21:14;2.30;99.90
58469;DHT22;44257;44.804;10.220;2023-02-16T06:38:05;2.30;99.90
58469;DHT22;44257;44.804;10.220;2023-02-16T06:44:22;2.80;99.90
58469;DHT22;44257;44.804;10.220;2023-02-16T06:47:28;2.90;99.90
58469;DHT22;44257;44.804;10.220;2023-02-16T06:50:29;3.00;99.90
58469;DHT22;44257;44.804;10.220;2023-02-16T06:53:57;3.10;99.90
58469;DHT22;44257;44.804;10.220;2023-02-16T07:03:52;3.50;99.90
58469;DHT22;44257;44.804;10.220;2023-02-16T07:07:31;3.70;99.90
58469;DHT22;44257;44.804;10.220;2023-02-16T07:10:34;3.90;99.90
58469;DHT22;44257;44.804;10.220;2023-02-16T07:13:45;4.10;99.90
58469;DHT22;44257;44.804;10.220;2023-02-16T07:16:11;4.40;99.90
58469;DHT22;44257;44.804;10.220;2023-02-16T07:19:15;4.60;99.90
58469;DHT22;44257;44.804;10.220;2023-02-16T07:22:39;4.90;99.90
58469;DHT22;44257;44.804;10.220;2023-02-16T07:25:40;5.20;99.90
58469;DHT22;44257;44.804;10.220;2023-02-16T07:28:25;5.40;99.90
58469;DHT22;44257;44.804;10.220;2023-02-16T07:35:20;5.90;99.90
58469;DHT22;44257;44.804;10.220;2023-02-16T07:42:49;6.30;99.90
58469;DHT22;44257;44.804;10.220;2023-02-16T07:45:49;6.50;99.90
58469;DHT22;44257;44.804;10.220;2023-02-16T08:01:44;7.20;99.90
58469;DHT22;44257;44.804;10.220;2023-02-16T08:11:23;7.70;99.90
58469;DHT22;44257;44.804;10.220;2023-02-16T08:15:03;7.90;99.90
58469;DHT22;44257;44.804;10.220;2023-02-16T08:17:57;8.10;99.90
58469;DHT22;44257;44.804;10.220;2023-02-16T08:21:32;8.30;99.90
58469;DHT22;44257;44.804;10.220;2023-02-16T08:24:43;8.40;99.90
58469;DHT22;44257;44.804;10.220;2023-02-16T08:27:24;8.50;99.90
58469;DHT22;44257;44.804;10.220;2023-02-16T08:30:05;8.60;99.90
58469;DHT22;44257;44.804;10.220;2023-02-16T08:33:27;8.60;99.90
58469;DHT22;44257;44.804;10.220;2023-02-16T08:39:01;8.80;99.90
58469;DHT22;44257;44.804;10.220;2023-02-16T08:41:46;9.00;99.90
58469;DHT22;44257;44.804;10.220;2023-02-16T08:44:14;9.20;99.90
58469;DHT22;44257;44.804;10.220;2023-02-16T08:54:45;9.70;99.90
58469;DHT22;44257;44.804;10.220;2023-02-16T08:57:56;9.80;99.90
58469;DHT22;44257;44.804;10.220;2023-02-16T09:00:32;10.00;99.90
58469;DHT22;44257;44.804;10.220;2023-02-16T09:03:21;10.20;99.90
58469;DHT22;44257;44.804;10.220;2023-02-16T09:06:03;10.30;99.90
58469;DHT22;44257;44.804;10.220;2023-02-16T09:08:51;10.50;99.90
58469;DHT22;44257;44.804;10.220;2023-02-16T09:11:29;10.70;99.90
58469;DHT22;44257;44.804;10.220;2023-02-16T09:20:11;11.30;99.90
58469;DHT22;44257;44.804;10.220;2023-02-16T09:22:43;11.50;99.90
58469;DHT22;44257;44.804;10.220;2023-02-16T09:25:12;11.70;99.90
58469;DHT22;44257;44.804;10.220;2023-02-16T09:27:41;11.90;99.90
58469;DHT22;44257;44.804;10.220;2023-02-16T09:39:29;12.50;99.90
58469;DHT22;44257;44.804;10.220;2023-02-16T09:45:07;12.80;99.90
58469;DHT22;44257;44.804;10.220;2023-02-16T09:48:18;12.90;99.90
58469;DHT22;44257;44.804;10.220;2023-02-16T10:04:48;13.10;99.90
58469;DHT22;44257;44.804;10.220;2023-02-16T10:33:24;12.80;99.90
58469;DHT22;44257;44.804;10.220;2023-02-16T10:35:57;12.80;99.90
58469;DHT22;44257;44.804;10.220;2023-02-16T10:39:01;12.80;99.90
58469;DHT22;44257;44.804;10.220;2023-02-16T10:44:46;12.90;99.90
58469;DHT22;44257;44.804;10.220;2023-02-16T10:54:28;12.90;99.90
58469;DHT22;44257;44.804;10.220;2023-02-16T10:59:45;12.80;99.90
58469;DHT22;44257;44.804;10.220;2023-02-16T11:03:01;12.80;99.90
58469;DHT22;44257;44.804;10.220;2023-02-16T11:05:32;12.90;99.90
58469;DHT22;44257;44.804;10.220;2023-02-16T11:08:00;12.90;99.90
58469;DHT22;44257;44.804;10.220;2023-02-16T11:10:43;13.00;99.90
58469;DHT22;44257;44.804;10.220;2023-02-16T11:13:28;13.20;99.90
58469;DHT22;44257;44.804;10.220;2023-02-16T11:16:11;13.40;99.90
58469;DHT22;44257;44.804;10.220;2023-02-16T11:18:46;13.50;99.90
58469;DHT22;44257;44.804;10.220;2023-02-16T11:21:14;13.50;99.90
58469;DHT22;44257;44.804;10.220;2023-02-16T11:23:56;13.50;99.90
58469;DHT22;44257;44.804;10.220;2023-02-16T11:26:25;13.50;99.90
58469;DHT22;44257;44.804;10.220;2023-02-16T11:28:52;13.60;99.90
58469;DHT22;44257;44.804;10.220;2023-02-16T11:31:38;13.70;99.90
58469;DHT22;44257;44.804;10.220;2023-02-16T11:36:49;13.90;99.90
58469;DHT22;44257;44.804;10.220;2023-02-16T11:39:40;14.00;99.90
58469;DHT22;44257;44.804;10.220;2023-02-16T11:45:01;13.70;99.90
58469;DHT22;44257;44.804;10.220;2023-02-16T11:48:12;13.80;99.90
58469;DHT22;44257;44.804;10.220;2023-02-16T11:51:31;13.90;99.90
58469;DHT22;44257;44.804;10.220;2023-02-16T11:58:35;14.10;99.90
58469;DHT22;44257;44.804;10.220;2023-02-16T12:00:36;14.00;99.90
58469;DHT22;44257;44.804;10.220;2023-02-16T12:12:35;14.30;99.90
58469;DHT22;44257;44.804;10.220;2023-02-16T12:30:59;14.90;99.90
58469;DHT22;44257;44.804;10.220;2023-02-16T12:33:33;14.90;99.90
58469;DHT22;44257;44.804;10.220;2023-02-16T12:44:51;15.30;99.90
58469;DHT22;44257;44.804;10.220;2023-02-16T12:50:06;15.30;99.90
58469;DHT22;44257;44.804;10.220;2023-02-16T12:52:45;15.10;99.90
58469;DHT22;44257;44.804;10.220;2023-02-16T13:11:10;15.20;99.90
58469;DHT22;44257;44.804;10.220;2023-02-16T13:13:39;15.20;99.90
58469;DHT22;44257;44.804;10.220;2023-02-16T13:16:23;15.30;99.90
58469;DHT22;44257;44.804;10.220;2023-02-16T13:18:52;15.50;99.90
58469;DHT22;44257;44.804;10.220;2023-02-16T13:21:34;15.70;99.90
58469;DHT22;44257;44.804;10.220;2023-02-16T13:29:26;16.00;99.90
58469;DHT22;44257;44.804;10.220;2023-02-16T13:34:59;16.20;99.90
58469;DHT22;44257;44.804;10.220;2023-02-16T13:43:43;16.20;99.90
58469;DHT22;44257;44.804;10.220;2023-02-16T13:46:38;16.30;99.90
58469;DHT22;44257;44.804;10.220;2023-02-16T13:49:12;16.20;99.90
58469;DHT22;44257;44.804;10.220;2023-02-16T13:51:52;16.30;99.40
58469;DHT22;44257;44.804;10.220;2023-02-16T13:54:38;16.40;99.90
58469;DHT22;44257;44.804;10.220;2023-02-16T13:57:10;16.40;99.90
58469;DHT22;44257;44.804;10.220;2023-02-16T14:02:14;16.40;99.90
58469;DHT22;44257;44.804;10.220;2023-02-16T14:07:20;16.40;99.60
58469;DHT22;44257;44.804;10.220;2023-02-16T14:09:48;16.30;99.70
58469;DHT22;44257;44.804;10.220;2023-02-16T14:12:28;16.50;99.40
58469;DHT22;44257;44.804;10.220;2023-02-16T14:15:15;16.60;99.00
58469;DHT22;44257;44.804;10.220;2023-02-16T14:17:42;16.60;98.10
58469;DHT22;44257;44.804;10.220;2023-02-16T14:30:34;16.50;97.40
58469;DHT22;44257;44.804;10.220;2023-02-16T14:40:56;16.30;97.90
58469;DHT22;44257;44.804;10.220;2023-02-16T14:43:39;16.30;98.10
58469;DHT22;44257;44.804;10.220;2023-02-16T15:03:25;16.20;98.00
58469;DHT22;44257;44.804;10.220;2023-02-16T15:06:03;16.20;98.10
58469;DHT22;44257;44.804;10.220;2023-02-16T15:08:33;16.20;98.80
58469;DHT22;44257;44.804;10.220;2023-02-16T15:11:27;16.20;98.50
58469;DHT22;44257;44.804;10.220;2023-02-16T15:13:53;16.20;98.00
58469;DHT22;44257;44.804;10.220;2023-02-16T15:16:21;16.10;97.90
58469;DHT22;44257;44.804;10.220;2023-02-16T15:18:52;16.10;97.90
58469;DHT22;44257;44.804;10.220;2023-02-16T15:21:25;16.00;98.50
58469;DHT22;44257;44.804;10.220;2023-02-16T15:23:57;16.00;98.70
58469;DHT22;44257;44.804;10.220;2023-02-16T15:26:29;15.90;98.70
58469;DHT22;44257;44.804;10.220;2023-02-16T15:28:56;15.80;98.90
58469;DHT22;44257;44.804;10.220;2023-02-16T15:31:28;15.80;99.20
58469;DHT22;44257;44.804;10.220;2023-02-16T15:34:03;15.70;99.30
58469;DHT22;44257;44.804;10.220;2023-02-16T15:36:37;15.50;99.60
58469;DHT22;44257;44.804;10.220;2023-02-16T15:39:07;15.40;99.90
58469;DHT22;44257;44.804;10.220;2023-02-16T15:41:38;15.30;99.90
58469;DHT22;44257;44.804;10.220;2023-02-16T15:44:12;15.20;99.90
58469;DHT22;44257;44.804;10.220;2023-02-16T15:46:41;15.20;99.90
58469;DHT22;44257;44.804;10.220;2023-02-16T15:49:24;15.10;99.90
58469;DHT22;44257;44.804;10.220;2023-02-16T15:51:50;15.00;99.90
58469;DHT22;44257;44.804;10.220;2023-02-16T15:56:51;14.70;99.90
58469;DHT22;44257;44.804;10.220;2023-02-16T15:59:41;14.60;99.90
58469;DHT22;44257;44.804;10.220;2023-02-16T16:02:17;14.40;99.90
58469;DHT22;44257;44.804;10.220;2023-02-16T16:04:58;14.20;99.90
58469;DHT22;44257;44.804;10.220;2023-02-16T16:09:53;13.80;99.90
58469;DHT22;44257;44.804;10.220;2023-02-16T16:12:21;13.60;99.90
58469;DHT22;44257;44.804;10.220;2023-02-16T16:14:56;13.60;99.90
58469;DHT22;44257;44.804;10.220;2023-02-16T16:17:36;13.50;99.90
58469;DHT22;44257;44.804;10.220;2023-02-16T16:23:45;13.00;99.90
58469;DHT22;44257;44.804;10.220;2023-02-16T16:25:47;12.70;99.90
58469;DHT22;44257;44.804;10.220;2023-02-16T16:31:12;12.20;99.90
58469;DHT22;44257;44.804;10.220;2023-02-16T16:36:53;11.60;99.90
58469;DHT22;44257;44.804;10.220;2023-02-16T16:42:14;11.30;99.90
58469;DHT22;44257;44.804;10.220;2023-02-16T16:44:52;11.10;99.90
58469;DHT22;44257;44.804;10.220;2023-02-16T16:47:38;10.90;99.90
58469;DHT22;44257;44.804;10.220;2023-02-16T16:52:40;10.60;99.90
58469;DHT22;44257;44.804;10.220;2023-02-16T17:00:31;10.60;99.90
58469;DHT22;44257;44.804;10.220;2023-02-16T17:03:00;10.80;99.90
58469;DHT22;44257;44.804;10.220;2023-02-16T17:05:26;11.00;99.90
58469;DHT22;44257;44.804;10.220;2023-02-16T17:07:52;11.20;99.90
58469;DHT22;44257;44.804;10.220;2023-02-16T17:10:19;11.30;99.90
58469;DHT22;44257;44.804;10.220;2023-02-16T17:12:57;11.40;99.90
58469;DHT22;44257;44.804;10.220;2023-02-16T17:17:59;11.40;99.90
58469;DHT22;44257;44.804;10.220;2023-02-16T17:20:25;11.20;99.90
58469;DHT22;44257;44.804;10.220;2023-02-16T17:22:51;11.10;99.90
58469;DHT22;44257;44.804;10.220;2023-02-16T17:25:17;11.00;99.90
58469;DHT22;44257;44.804;10.220;2023-02-16T17:27:43;10.90;99.90
58469;DHT22;44257;44.804;10.220;2023-02-16T17:30:09;10.90;99.90
58469;DHT22;44257;44.804;10.220;2023-02-16T17:32:36;10.90;99.90
58469;DHT22;44257;44.804;10.220;2023-02-16T17:35:02;11.00;99.90
58469;DHT22;44257;44.804;10.220;2023-02-16T17:37:31;10.90;99.90
58469;DHT22;44257;44.804;10.220;2023-02-16T17:39:57;10.90;99.90
58469;DHT22;44257;44.804;10.220;2023-02-16T17:42:23;11.00;99.90
58469;DHT22;44257;44.804;10.220;2023-02-16T17:44:49;11.00;99.90
58469;DHT22;44257;44.804;10.220;2023-02-16T17:47:15;11.00;99.90
58469;DHT22;44257;44.804;10.220;2023-02-16T17:49:41;11.00;99.90
58469;DHT22;44257;44.804;10.220;2023-02-16T17:52:11;10.90;99.90
58469;DHT22;44257;44.804;10.220;2023-02-16T17:54:37;10.80;99.90
58469;DHT22;44257;44.804;10.220;2023-02-16T17:57:03;10.80;99.90
58469;DHT22;44257;44.804;10.220;2023-02-16T17:59:29;10.70;99.90
58469;DHT22;44257;44.804;10.220;2023-02-16T18:01:56;10.60;99.90
58469;DHT22;44257;44.804;10.220;2023-02-16T18:04:22;10.50;99.90
58469;DHT22;44257;44.804;10.220;2023-02-16T18:06:47;10.40;99.90
58469;DHT22;44257;44.804;10.220;2023-02-16T18:09:15;10.30;99.90
58469;DHT22;44257;44.804;10.220;2023-02-16T18:11:45;10.30;99.90
58469;DHT22;44257;44.804;10.220;2023-02-16T18:14:11;10.20;99.90
58469;DHT22;44257;44.804;10.220;2023-02-16T18:16:38;10.10;99.90
58469;DHT22;44257;44.804;10.220;2023-02-16T18:19:04;10.10;99.90
58469;DHT22;44257;44.804;10.220;2023-02-16T18:21:33;10.20;99.90
58469;DHT22;44257;44.804;10.220;2023-02-16T18:23:59;10.20;99.90
58469;DHT22;44257;44.804;10.220;2023-02-16T18:26:25;10.20;99.90
58469;DHT22;44257;44.804;10.220;2023-02-16T18:28:58;10.10;99.90
58469;DHT22;44257;44.804;10.220;2023-02-16T18:31:24;10.00;99.90
58469;DHT22;44257;44.804;10.220;2023-02-16T18:33:50;10.00;99.90
58469;DHT22;44257;44.804;10.220;2023-02-16T18:36:16;10.00;99.90
58469;DHT22;44257;44.804;10.220;2023-02-16T18:38:42;10.00;99.90
58469;DHT22;44257;44.804;10.220;2023-02-16T18:41:08;10.00;99.90
58469;DHT22;44257;44.804;10.220;2023-02-16T18:43:34;10.00;99.90
58469;DHT22;44257;44.804;10.220;2023-02-16T18:46:08;10.00;99.90
58469;DHT22;44257;44.804;10.220;2023-02-16T18:48:35;10.00;99.90
58469;DHT22;44257;44.804;10.220;2023-02-16T18:51:05;9.90;99.90
58469;DHT22;44257;44.804;10.220;2023-02-16T18:53:32;10.00;99.90
58469;DHT22;44257;44.804;10.220;2023-02-16T18:55:57;10.00;99.90
58469;DHT22;44257;44.804;10.220;2023-02-16T18:58:23;10.00;99.90
58469;DHT22;44257;44.804;10.220;2023-02-16T19:00:49;10.00;99.90
58469;DHT22;44257;44.804;10.220;2023-02-16T19:03:15;9.90;99.90
58469;DHT22;44257;44.804;10.220;2023-02-16T19:05:41;9.80;99.90
58469;DHT22;44257;44.804;10.220;2023-02-16T19:08:07;9.80;99.90
58469;DHT22;44257;44.804;10.220;2023-02-16T19:10:33;9.80;99.90
58469;DHT22;44257;44.804;10.220;2023-02-16T19:12:58;9.80;99.90
58469;DHT22;44257;44.804;10.220;2023-02-16T19:15:24;9.80;99.90
58469;DHT22;44257;44.804;10.220;2023-02-16T19:17:50;9.80;99.90
58469;DHT22;44257;44.804;10.220;2023-02-16T19:20:16;9.80;99.90
58469;DHT22;44257;44.804;10.220;2023-02-16T19:22:47;9.80;99.90
58469;DHT22;44257;44.804;10.220;2023-02-16T19:25:14;9.80;99.90
58469;DHT22;44257;44.804;10.220;2023-02-16T19:27:40;9.80;99.90
58469;DHT22;44257;44.804;10.220;2023-02-16T19:30:06;9.80;99.90
58469;DHT22;44257;44.804;10.220;2023-02-16T19:32:32;9.80;99.90
58469;DHT22;44257;44.804;10.220;2023-02-16T19:34:58;9.70;99.90
58469;DHT22;44257;44.804;10.220;2023-02-16T19:37:24;9.60;99.90
58469;DHT22;44257;44.804;10.220;2023-02-16T19:39:50;9.60;99.90
58469;DHT22;44257;44.804;10.220;2023-02-16T19:42:16;9.60;99.90
58469;DHT22;44257;44.804;10.220;2023-02-16T19:44:42;9.70;99.90
58469;DHT22;44257;44.804;10.220;2023-02-16T19:47:08;9.70;99.90
58469;DHT22;44257;44.804;10.220;2023-02-16T19:49:33;9.70;99.90
58469;DHT22;44257;44.804;10.220;2023-02-16T19:52:00;9.80;99.90
58469;DHT22;44257;44.804;10.220;2023-02-16T19:54:30;9.80;99.90
58469;DHT22;44257;44.804;10.220;2023-02-16T19:56:57;9.80;99.90
58469;DHT22;44257;44.804;10.220;2023-02-16T19:59:23;9.90;99.90
58469;DHT22;44257;44.804;10.220;2023-02-16T20:01:49;9.90;99.90
58469;DHT22;44257;44.804;10.220;2023-02-16T20:04:14;9.90;99.90
58469;DHT22;44257;44.804;10.220;2023-02-16T20:06:41;9.90;99.90
58469;DHT22;44257;44.804;10.220;2023-02-16T20:09:09;10.00;99.90
58469;DHT22;44257;44.804;10.220;2023-02-16T20:11:37;10.00;99.90
58469;DHT22;44257;44.804;10.220;2023-02-16T20:14:03;10.00;99.90
58469;DHT22;44257;44.804;10.220;2023-02-16T20:16:30;10.00;99.90
58469;DHT22;44257;44.804;10.220;2023-02-16T20:18:56;10.00;99.90
58469;DHT22;44257;44.804;10.220;2023-02-16T20:21:26;9.90;99.90
58469;DHT22;44257;44.804;10.220;2023-02-16T20:23:56;9.80;99.90
58469;DHT22;44257;44.804;10.220;2023-02-16T20:26:26;9.80;99.90
58469;DHT22;44257;44.804;10.220;2023-02-16T20:28:52;9.80;99.90
58469;DHT22;44257;44.804;10.220;2023-02-16T20:31:22;9.80;99.90
58469;DHT22;44257;44.804;10.220;2023-02-16T20:33:48;9.80;99.90
58469;DHT22;44257;44.804;10.220;2023-02-16T20:36:15;9.70;99.90
58469;DHT22;44257;44.804;10.220;2023-02-16T20:38:41;9.70;99.90
58469;DHT22;44257;44.804;10.220;2023-02-16T20:41:07;9.70;99.90
58469;DHT22;44257;44.804;10.220;2023-02-16T20:43:33;9.70;99.90
58469;DHT22;44257;44.804;10.220;2023-02-16T20:46:04;9.70;99.90
58469;DHT22;44257;44.804;10.220;2023-02-16T20:48:30;9.70;99.90
58469;DHT22;44257;44.804;10.220;2023-02-16T20:50:59;9.70;99.90
58469;DHT22;44257;44.804;10.220;2023-02-16T20:53:26;9.70;99.90
58469;DHT22;44257;44.804;10.220;2023-02-16T20:56:01;9.70;99.90
58469;DHT22;44257;44.804;10.220;2023-02-16T20:58:27;9.70;99.90
58469;DHT22;44257;44.804;10.220;2023-02-16T21:00:53;9.70;99.90
58469;DHT22;44257;44.804;10.220;2023-02-16T21:03:19;9.70;99.90
58469;DHT22;44257;44.804;10.220;2023-02-16T21:05:45;9.70;99.90
58469;DHT22;44257;44.804;10.220;2023-02-16T21:08:11;9.60;99.90
58469;DHT22;44257;44.804;10.220;2023-02-16T21:10:37;9.60;99.90
58469;DHT22;44257;44.804;10.220;2023-02-16T21:13:03;9.50;99.90
58469;DHT22;44257;44.804;10.220;2023-02-16T21:15:29;9.50;99.90
58469;DHT22;44257;44.804;10.220;2023-02-16T21:17:54;9.60;99.90
58469;DHT22;44257;44.804;10.220;2023-02-16T21:20:20;9.50;99.90
58469;DHT22;44257;44.804;10.220;2023-02-16T21:22:46;9.60;99.90
58469;DHT22;44257;44.804;10.220;2023-02-16T21:25:12;9.50;99.90
58469;DHT22;44257;44.804;10.220;2023-02-16T21:27:38;9.50;99.90
58469;DHT22;44257;44.804;10.220;2023-02-16T21:30:04;9.50;99.90
58469;DHT22;44257;44.804;10.220;2023-02-16T21:32:30;9.50;99.90
58469;DHT22;44257;44.804;10.220;2023-02-16T21:34:56;9.50;99.90
58469;DHT22;44257;44.804;10.220;2023-02-16T21:37:22;9.40;99.90
58469;DHT22;44257;44.804;10.220;2023-02-16T21:39:48;9.30;99.90
58469;DHT22;44257;44.804;10.220;2023-02-16T21:42:33;9.30;99.90
58469;DHT22;44257;44.804;10.220;2023-02-16T21:44:59;9.30;99.90
58469;DHT22;44257;44.804;10.220;2023-02-16T21:47:38;9.30;99.90
58469;DHT22;44257;44.804;10.220;2023-02-16T21:50:23;9.30;99.90
58469;DHT22;44257;44.804;10.220;2023-02-16T21:52:49;9.40;99.90
58469;DHT22;44257;44.804;10.220;2023-02-16T21:55:16;9.40;99.90
58469;DHT22;44257;44.804;10.220;2023-02-16T21:58:00;9.40;99.90
58469;DHT22;44257;44.804;10.220;2023-02-16T22:00:26;9.50;99.90
58469;DHT22;44257;44.804;10.220;2023-02-16T22:02:52;9.50;99.90
58469;DHT22;44257;44.804;10.220;2023-02-16T22:05:18;9.40;99.90
58469;DHT22;44257;44.804;10.220;2023-02-16T22:07:44;9.40;99.90
58469;DHT22;44257;44.804;10.220;2023-02-16T22:10:10;9.40;99.90
58469;DHT22;44257;44.804;10.220;2023-02-16T22:12:36;9.30;99.90
58469;DHT22;44257;44.804;10.220;2023-02-16T22:15:02;9.30;99.90
58469;DHT22;44257;44.804;10.220;2023-02-16T22:17:28;9.30;99.90
58469;DHT22;44257;44.804;10.220;2023-02-16T22:19:53;9.30;99.90
58469;DHT22;44257;44.804;10.220;2023-02-16T22:22:19;9.30;99.90
58469;DHT22;44257;44.804;10.220;2023-02-16T22:24:45;9.30;99.90
58469;DHT22;44257;44.804;10.220;2023-02-16T22:27:11;9.30;99.90
58469;DHT22;44257;44.804;10.220;2023-02-16T22:29:37;9.20;99.90
58469;DHT22;44257;44.804;10.220;2023-02-16T22:32:03;9.20;99.90
58469;DHT22;44257;44.804;10.220;2023-02-16T22:34:28;9.20;99.90
58469;DHT22;44257;44.804;10.220;2023-02-16T22:36:54;9.20;99.90
58469;DHT22;44257;44.804;10.220;2023-02-16T22:39:20;9.20;99.90
58469;DHT22;44257;44.804;10.220;2023-02-16T22:41:48;9.10;99.90
58469;DHT22;44257;44.804;10.220;2023-02-16T22:44:15;9.10;99.90
58469;DHT22;44257;44.804;10.220;2023-02-16T22:46:41;9.00;99.90
58469;DHT22;44257;44.804;10.220;2023-02-16T22:49:08;9.00;99.90
58469;DHT22;44257;44.804;10.220;2023-02-16T22:51:34;9.00;99.90
58469;DHT22;44257;44.804;10.220;2023-02-16T22:54:02;9.10;99.90
58469;DHT22;44257;44.804;10.220;2023-02-16T22:56:29;9.00;99.90
58469;DHT22;44257;44.804;10.220;2023-02-16T22:58:56;9.00;99.90
58469;DHT22;44257;44.804;10.220;2023-02-16T23:01:22;9.00;99.90
58469;DHT22;44257;44.804;10.220;2023-02-16T23:03:52;9.00;99.90
58469;DHT22;44257;44.804;10.220;2023-02-16T23:06:20;8.90;99.90
58469;DHT22;44257;44.804;10.220;2023-02-16T23:08:54;8.90;99.90
58469;DHT22;44257;44.804;10.220;2023-02-16T23:11:21;8.90;99.90
58469;DHT22;44257;44.804;10.220;2023-02-16T23:13:47;9.00;99.90
58469;DHT22;44257;44.804;10.220;2023-02-16T23:16:16;8.90;99.90
58469;DHT22;44257;44.804;10.220;2023-02-16T23:18:42;8.90;99.90
58469;DHT22;44257;44.804;10.220;2023-02-16T23:23:46;8.90;99.90
58469;DHT22;44257;44.804;10.220;2023-02-16T23:26:13;8.90;99.90
58469;DHT22;44257;44.804;10.220;2023-02-16T23:28:40;8.70;99.90
58469;DHT22;44257;44.804;10.220;2023-02-16T23:31:07;8.70;99.90
58469;DHT22;44257;44.804;10.220;2023-02-16T23:33:33;8.60;99.90
58469;DHT22;44257;44.804;10.220;2023-02-16T23:35:59;8.50;99.90
58469;DHT22;44257;44.804;10.220;2023-02-16T23:38:25;8.30;99.90
58469;DHT22;44257;44.804;10.220;2023-02-16T23:41:02;8.10;99.90
58469;DHT22;44257;44.804;10.220;2023-02-16T23:43:29;8.00;99.90
58469;DHT22;44257;44.804;10.220;2023-02-16T23:45:55;7.90;99.90
58469;DHT22;44257;44.804;10.220;2023-02-16T23:48:22;7.80;99.90
58469;DHT22;44257;44.804;10.220;2023-02-16T23:50:49;7.70;99.90
58469;DHT22;44257;44.804;10.220;2023-02-16T23:53:16;7.60;99.90
58469;DHT22;44257;44.804;10.220;2023-02-16T23:55:42;7.40;99.90
58469;DHT22;44257;44.804;10.220;2023-02-16T23:58:08;7.30;99.90
